createdAt,value
2022-10-23T00:00:53.566Z,1010.88
2022-10-23T00:01:53.588Z,1010.90
2022-10-23T00:02:53.602Z,1010.89
2022-10-23T00:03:53.551Z,1010.88
2022-10-23T00:04:53.529Z,1010.91
2022-10-23T00:05:53.521Z,1010.89
2022-10-23T00:06:53.509Z,1010.89
2022-10-23T00:07:53.508Z,1010.88
2022-10-23T00:08:53.469Z,1010.91
2022-10-23T00:09:53.479Z,1010.88
2022-10-23T00:10:53.450Z,1010.85
2022-10-23T00:11:53.440Z,1010.84
2022-10-23T00:12:53.450Z,1010.85
2022-10-23T00:13:53.412Z,1010.83
2022-10-23T00:14:53.420Z,1010.80
2022-10-23T00:15:53.422Z,1010.83
2022-10-23T00:16:53.396Z,1010.80
2022-10-23T00:17:53.374Z,1010.85
2022-10-23T00:18:53.416Z,1010.81
2022-10-23T00:19:53.352Z,1010.76
2022-10-23T00:20:53.357Z,1010.80
2022-10-23T00:21:53.325Z,1010.79
2022-10-23T00:22:53.343Z,1010.76
2022-10-23T00:23:53.310Z,1010.82
2022-10-23T00:24:53.324Z,1010.79
2022-10-23T00:25:53.300Z,1010.77
2022-10-23T00:26:53.274Z,1010.78
2022-10-23T00:27:53.265Z,1010.74
2022-10-23T00:28:53.285Z,1010.70
2022-10-23T00:29:53.235Z,1010.77
2022-10-23T00:30:54.203Z,1010.77
2022-10-23T00:31:53.218Z,1010.74
2022-10-23T00:32:53.232Z,1010.74
2022-10-23T00:33:53.224Z,1010.71
2022-10-23T00:34:53.186Z,1010.71
2022-10-23T00:35:53.172Z,1010.71
2022-10-23T00:36:53.206Z,1010.73
2022-10-23T00:37:53.145Z,1010.71
2022-10-23T00:38:53.140Z,1010.78
2022-10-23T00:39:53.127Z,1010.73
2022-10-23T00:40:53.114Z,1010.72
2022-10-23T00:41:53.140Z,1010.77
2022-10-23T00:42:53.115Z,1010.76
2022-10-23T00:43:53.079Z,1010.75
2022-10-23T00:44:53.072Z,1010.75
2022-10-23T00:45:53.074Z,1010.73
2022-10-23T00:46:53.060Z,1010.71
2022-10-23T00:47:53.060Z,1010.72
2022-10-23T00:48:53.063Z,1010.69
2022-10-23T00:49:53.020Z,1010.67
2022-10-23T00:50:53.021Z,1010.70
2022-10-23T00:51:53.014Z,1010.68
2022-10-23T00:52:52.991Z,1010.67
2022-10-23T00:54:01.385Z,1010.71
2022-10-23T00:54:54.003Z,1010.67
2022-10-23T00:55:52.946Z,1010.63
2022-10-23T00:56:52.946Z,1010.60
2022-10-23T00:57:52.928Z,1010.55
2022-10-23T00:58:52.921Z,1010.59
2022-10-23T00:59:52.909Z,1010.56
2022-10-23T01:00:52.926Z,1010.56
2022-10-23T01:01:52.966Z,1010.59
2022-10-23T01:02:52.899Z,1010.65
2022-10-23T01:03:52.858Z,1010.57
2022-10-23T01:04:52.879Z,1010.55
2022-10-23T01:05:52.841Z,1010.57
2022-10-23T01:06:52.846Z,1010.52
2022-10-23T01:07:52.812Z,1010.47
2022-10-23T01:08:52.805Z,1010.51
2022-10-23T01:09:52.823Z,1010.49
2022-10-23T01:10:52.803Z,1010.48
2022-10-23T01:11:52.786Z,1010.49
2022-10-23T01:12:52.785Z,1010.49
2022-10-23T01:13:52.819Z,1010.49
2022-10-23T01:14:52.756Z,1010.49
2022-10-23T01:15:53.738Z,1010.47
2022-10-23T01:16:52.719Z,1010.49
2022-10-23T01:17:52.706Z,1010.51
2022-10-23T01:18:52.707Z,1010.50
2022-10-23T01:19:52.710Z,1010.53
2022-10-23T01:20:52.678Z,1010.55
2022-10-23T01:21:52.674Z,1010.57
2022-10-23T01:22:52.649Z,1010.60
2022-10-23T01:23:52.640Z,1010.59
2022-10-23T01:24:52.649Z,1010.60
2022-10-23T01:25:52.650Z,1010.58
2022-10-23T01:26:52.621Z,1010.58
2022-10-23T01:27:52.605Z,1010.53
2022-10-23T01:28:52.580Z,1010.59
2022-10-23T01:29:52.571Z,1010.59
2022-10-23T01:30:52.571Z,1010.52
2022-10-23T01:31:52.602Z,1010.50
2022-10-23T01:32:52.577Z,1010.42
2022-10-23T01:33:52.522Z,1010.37
2022-10-23T01:34:52.524Z,1010.35
2022-10-23T01:35:52.509Z,1010.37
2022-10-23T01:36:52.533Z,1010.38
2022-10-23T01:37:53.444Z,1010.34
2022-10-23T01:38:52.583Z,1010.36
2022-10-23T01:39:52.476Z,1010.35
2022-10-23T01:40:52.478Z,1010.35
2022-10-23T01:41:52.447Z,1010.30
2022-10-23T01:42:52.464Z,1010.36
2022-10-23T01:43:52.419Z,1010.28
2022-10-23T01:44:52.418Z,1010.20
2022-10-23T01:45:52.413Z,1010.21
2022-10-23T01:46:52.385Z,1010.20
2022-10-23T01:47:52.374Z,1010.16
2022-10-23T01:48:52.387Z,1010.16
2022-10-23T01:49:52.348Z,1010.14
2022-10-23T01:50:52.348Z,1010.04
2022-10-23T01:51:53.286Z,1010.12
2022-10-23T01:52:52.346Z,1009.98
2022-10-23T01:53:52.308Z,1009.94
2022-10-23T01:54:52.289Z,1009.98
2022-10-23T01:55:52.299Z,1009.98
2022-10-23T01:56:52.274Z,1009.95
2022-10-23T01:57:52.249Z,1009.94
2022-10-23T01:58:52.253Z,1009.99
2022-10-23T01:59:52.259Z,1009.99
2022-10-23T02:00:52.229Z,1010.04
2022-10-23T02:01:52.414Z,1010.03
2022-10-23T02:02:52.211Z,1010.03
2022-10-23T02:03:52.233Z,1010.06
2022-10-23T02:04:52.216Z,1010.06
2022-10-23T02:05:52.181Z,1010.07
2022-10-23T02:06:52.161Z,1010.03
2022-10-23T02:07:52.161Z,1010.03
2022-10-23T02:08:52.131Z,1010.00
2022-10-23T02:09:52.152Z,1009.98
2022-10-23T02:10:52.114Z,1009.98
2022-10-23T02:11:52.125Z,1009.98
2022-10-23T02:12:52.106Z,1009.99
2022-10-23T02:13:52.123Z,1009.98
2022-10-23T02:14:52.069Z,1009.94
2022-10-23T02:15:52.067Z,1009.92
2022-10-23T02:16:52.421Z,1009.93
2022-10-23T02:17:52.041Z,1009.89
2022-10-23T02:18:52.023Z,1009.94
2022-10-23T02:19:52.046Z,1009.91
2022-10-23T02:20:52.025Z,1009.91
2022-10-23T02:21:52.030Z,1009.92
2022-10-23T02:22:52.002Z,1009.87
2022-10-23T02:23:53.806Z,1009.89
2022-10-23T02:24:51.957Z,1009.81
2022-10-23T02:25:51.945Z,1009.85
2022-10-23T02:26:51.937Z,1009.83
2022-10-23T02:27:51.940Z,1009.82
2022-10-23T02:28:52.894Z,1009.80
2022-10-23T02:29:51.936Z,1009.75
2022-10-23T02:30:51.894Z,1009.73
2022-10-23T02:31:51.877Z,1009.76
2022-10-23T02:32:51.863Z,1009.72
2022-10-23T02:33:51.855Z,1009.73
2022-10-23T02:34:51.839Z,1009.72
2022-10-23T02:35:51.859Z,1009.70
2022-10-23T02:36:51.829Z,1009.66
2022-10-23T02:37:51.829Z,1009.67
2022-10-23T02:38:51.816Z,1009.72
2022-10-23T02:39:51.791Z,1009.65
2022-10-23T02:40:51.801Z,1009.66
2022-10-23T02:41:51.760Z,1009.64
2022-10-23T02:42:51.754Z,1009.65
2022-10-23T02:43:51.770Z,1009.59
2022-10-23T02:44:51.721Z,1009.60
2022-10-23T02:45:51.740Z,1009.55
2022-10-23T02:46:51.719Z,1009.61
2022-10-23T02:47:51.706Z,1009.61
2022-10-23T02:48:51.723Z,1009.58
2022-10-23T02:49:51.673Z,1009.62
2022-10-23T02:50:51.673Z,1009.58
2022-10-23T02:51:51.654Z,1009.60
2022-10-23T02:52:51.644Z,1009.57
2022-10-23T02:53:51.647Z,1009.46
2022-10-23T02:54:51.659Z,1009.45
2022-10-23T02:55:51.615Z,1009.43
2022-10-23T02:56:51.589Z,1009.43
2022-10-23T02:57:51.605Z,1009.46
2022-10-23T02:58:51.565Z,1009.49
2022-10-23T02:59:51.570Z,1009.49
2022-10-23T03:00:51.576Z,1009.49
2022-10-23T03:01:51.646Z,1009.51
2022-10-23T03:02:51.534Z,1009.62
2022-10-23T03:03:51.557Z,1009.55
2022-10-23T03:04:51.508Z,1009.59
2022-10-23T03:05:51.536Z,1009.56
2022-10-23T03:06:51.491Z,1009.55
2022-10-23T03:07:51.503Z,1009.51
2022-10-23T03:08:51.469Z,1009.46
2022-10-23T03:09:51.456Z,1009.43
2022-10-23T03:10:51.455Z,1009.50
2022-10-23T03:11:51.450Z,1009.41
2022-10-23T03:12:51.479Z,1009.40
2022-10-23T03:13:51.412Z,1009.38
2022-10-23T03:14:51.417Z,1009.40
2022-10-23T03:15:51.402Z,1009.39
2022-10-23T03:16:51.372Z,1009.35
2022-10-23T03:17:51.360Z,1009.38
2022-10-23T03:18:52.301Z,1009.37
2022-10-23T03:19:51.361Z,1009.35
2022-10-23T03:20:51.322Z,1009.34
2022-10-23T03:21:51.314Z,1009.29
2022-10-23T03:22:51.306Z,1009.27
2022-10-23T03:23:51.312Z,1009.28
2022-10-23T03:24:51.320Z,1009.22
2022-10-23T03:25:51.287Z,1009.22
2022-10-23T03:26:51.259Z,1009.16
2022-10-23T03:27:51.258Z,1009.14
2022-10-23T03:28:51.240Z,1009.16
2022-10-23T03:29:51.230Z,1009.14
2022-10-23T03:30:51.275Z,1009.15
2022-10-23T03:31:51.204Z,1009.12
2022-10-23T03:32:51.193Z,1009.10
2022-10-23T03:33:51.189Z,1009.12
2022-10-23T03:34:51.176Z,1009.12
2022-10-23T03:35:51.157Z,1009.08
2022-10-23T03:36:51.185Z,1009.09
2022-10-23T03:37:51.136Z,1009.05
2022-10-23T03:38:51.120Z,1009.03
2022-10-23T03:39:51.129Z,1009.03
2022-10-23T03:40:51.100Z,1008.97
2022-10-23T03:41:51.088Z,1008.99
2022-10-23T03:42:51.101Z,1008.93
2022-10-23T03:43:51.126Z,1008.94
2022-10-23T03:44:51.066Z,1008.93
2022-10-23T03:45:51.060Z,1008.94
2022-10-23T03:46:51.032Z,1008.90
2022-10-23T03:47:51.038Z,1008.89
2022-10-23T03:48:51.009Z,1008.98
2022-10-23T03:49:51.011Z,1008.94
2022-10-23T03:50:50.990Z,1008.96
2022-10-23T03:51:51.009Z,1008.93
2022-10-23T03:52:50.968Z,1008.97
2022-10-23T03:53:50.969Z,1008.95
2022-10-23T03:54:50.950Z,1008.96
2022-10-23T03:55:50.950Z,1008.96
2022-10-23T03:56:53.676Z,1008.96
2022-10-23T03:57:51.919Z,1009.00
2022-10-23T03:58:50.910Z,1008.99
2022-10-23T03:59:50.892Z,1008.99
2022-10-23T04:00:50.878Z,1008.97
2022-10-23T04:01:50.952Z,1008.99
2022-10-23T04:02:50.880Z,1008.98
2022-10-23T04:03:50.862Z,1008.97
2022-10-23T04:04:50.845Z,1008.97
2022-10-23T04:05:52.312Z,1008.98
2022-10-23T04:06:50.837Z,1008.93
2022-10-23T04:07:50.875Z,1008.99
2022-10-23T04:08:50.796Z,1009.01
2022-10-23T04:09:50.784Z,1009.03
2022-10-23T04:10:50.764Z,1009.10
2022-10-23T04:11:50.775Z,1009.06
2022-10-23T04:12:50.746Z,1009.13
2022-10-23T04:13:50.744Z,1009.03
2022-10-23T04:14:50.716Z,1009.08
2022-10-23T04:15:50.736Z,1008.99
2022-10-23T04:16:50.718Z,1009.09
2022-10-23T04:17:50.692Z,1008.98
2022-10-23T04:18:50.681Z,1008.96
2022-10-23T04:19:50.686Z,1008.98
2022-10-23T04:20:50.660Z,1008.92
2022-10-23T04:21:50.686Z,1008.88
2022-10-23T04:22:50.671Z,1008.86
2022-10-23T04:23:50.649Z,1008.89
2022-10-23T04:24:50.610Z,1008.90
2022-10-23T04:25:50.601Z,1008.92
2022-10-23T04:26:50.596Z,1008.82
2022-10-23T04:27:50.621Z,1008.83
2022-10-23T04:28:52.020Z,1008.78
2022-10-23T04:29:52.236Z,1008.76
2022-10-23T04:30:51.505Z,1008.75
2022-10-23T04:31:50.539Z,1008.74
2022-10-23T04:32:50.563Z,1008.75
2022-10-23T04:33:50.521Z,1008.82
2022-10-23T04:34:50.514Z,1008.76
2022-10-23T04:35:50.491Z,1008.77
2022-10-23T04:36:50.482Z,1008.78
2022-10-23T04:37:50.472Z,1008.71
2022-10-23T04:38:50.512Z,1008.74
2022-10-23T04:39:50.449Z,1008.71
2022-10-23T04:40:50.450Z,1008.70
2022-10-23T04:41:50.424Z,1008.70
2022-10-23T04:42:50.416Z,1008.70
2022-10-23T04:43:50.404Z,1008.62
2022-10-23T04:44:50.447Z,1008.66
2022-10-23T04:45:50.387Z,1008.66
2022-10-23T04:46:50.381Z,1008.62
2022-10-23T04:47:50.379Z,1008.62
2022-10-23T04:48:50.834Z,1008.63
2022-10-23T04:49:50.345Z,1008.60
2022-10-23T04:50:51.299Z,1008.59
2022-10-23T04:51:50.357Z,1008.55
2022-10-23T04:52:50.311Z,1008.54
2022-10-23T04:53:50.288Z,1008.56
2022-10-23T04:54:50.285Z,1008.54
2022-10-23T04:55:50.268Z,1008.54
2022-10-23T04:56:50.279Z,1008.56
2022-10-23T04:57:50.249Z,1008.60
2022-10-23T04:58:50.237Z,1008.60
2022-10-23T04:59:50.273Z,1008.55
2022-10-23T05:00:50.286Z,1008.56
2022-10-23T05:01:50.226Z,1008.62
2022-10-23T05:02:50.214Z,1008.59
2022-10-23T05:03:50.202Z,1008.59
2022-10-23T05:04:50.186Z,1008.55
2022-10-23T05:05:50.171Z,1008.55
2022-10-23T05:06:50.207Z,1008.49
2022-10-23T05:07:51.132Z,1008.44
2022-10-23T05:08:50.128Z,1008.48
2022-10-23T05:09:50.120Z,1008.42
2022-10-23T05:10:50.113Z,1008.46
2022-10-23T05:11:50.117Z,1008.49
2022-10-23T05:12:51.034Z,1008.41
2022-10-23T05:13:50.121Z,1008.41
2022-10-23T05:14:50.062Z,1008.43
2022-10-23T05:15:50.055Z,1008.40
2022-10-23T05:16:50.043Z,1008.37
2022-10-23T05:17:50.042Z,1008.32
2022-10-23T05:18:50.018Z,1008.33
2022-10-23T05:19:50.034Z,1008.30
2022-10-23T05:20:50.103Z,1008.32
2022-10-23T05:21:49.994Z,1008.29
2022-10-23T05:22:49.983Z,1008.34
2022-10-23T05:23:50.043Z,1008.38
2022-10-23T05:24:50.764Z,1008.41
2022-10-23T05:25:49.976Z,1008.37
2022-10-23T05:26:49.937Z,1008.38
2022-10-23T05:27:49.946Z,1008.36
2022-10-23T05:28:49.910Z,1008.36
2022-10-23T05:29:49.938Z,1008.35
2022-10-23T05:30:49.888Z,1008.29
2022-10-23T05:31:49.875Z,1008.28
2022-10-23T05:32:49.868Z,1008.26
2022-10-23T05:33:49.878Z,1008.30
2022-10-23T05:34:49.928Z,1008.25
2022-10-23T05:35:49.928Z,1008.28
2022-10-23T05:36:49.847Z,1008.24
2022-10-23T05:37:49.838Z,1008.25
2022-10-23T05:38:49.842Z,1008.22
2022-10-23T05:39:49.799Z,1008.16
2022-10-23T05:40:49.770Z,1008.17
2022-10-23T05:41:49.862Z,1008.14
2022-10-23T05:42:50.730Z,1008.09
2022-10-23T05:43:49.830Z,1008.11
2022-10-23T05:44:49.761Z,1008.10
2022-10-23T05:45:49.731Z,1008.12
2022-10-23T05:46:49.780Z,1008.01
2022-10-23T05:47:49.708Z,1008.10
2022-10-23T05:48:49.759Z,1008.13
2022-10-23T05:49:49.693Z,1008.09
2022-10-23T05:50:49.844Z,1008.03
2022-10-23T05:51:49.703Z,1008.04
2022-10-23T05:52:49.777Z,1008.03
2022-10-23T05:53:49.661Z,1008.01
2022-10-23T05:54:49.695Z,1008.00
2022-10-23T05:55:49.675Z,1007.98
2022-10-23T05:56:49.650Z,1007.97
2022-10-23T05:57:49.617Z,1007.94
2022-10-23T05:58:49.588Z,1007.94
2022-10-23T05:59:51.039Z,1007.91
2022-10-23T06:00:49.562Z,1007.97
2022-10-23T06:01:49.653Z,1007.93
2022-10-23T06:02:49.552Z,1007.92
2022-10-23T06:03:49.537Z,1007.97
2022-10-23T06:04:51.005Z,1007.91
2022-10-23T06:05:49.505Z,1007.90
2022-10-23T06:06:49.524Z,1007.92
2022-10-23T06:07:49.492Z,1007.91
2022-10-23T06:08:49.469Z,1007.89
2022-10-23T06:09:50.484Z,1007.85
2022-10-23T06:10:49.484Z,1007.89
2022-10-23T06:11:49.443Z,1007.90
2022-10-23T06:12:49.439Z,1007.88
2022-10-23T06:13:49.517Z,1007.83
2022-10-23T06:14:49.598Z,1007.74
2022-10-23T06:15:49.493Z,1007.80
2022-10-23T06:16:49.542Z,1007.77
2022-10-23T06:17:49.375Z,1007.77
2022-10-23T06:18:49.349Z,1007.79
2022-10-23T06:19:49.359Z,1007.74
2022-10-23T06:20:49.344Z,1007.79
2022-10-23T06:21:49.524Z,1007.78
2022-10-23T06:22:49.390Z,1007.80
2022-10-23T06:23:49.314Z,1007.79
2022-10-23T06:24:49.329Z,1007.80
2022-10-23T06:25:49.341Z,1007.71
2022-10-23T06:26:49.313Z,1007.81
2022-10-23T06:27:49.378Z,1007.75
2022-10-23T06:28:49.236Z,1007.70
2022-10-23T06:29:49.305Z,1007.79
2022-10-23T06:30:50.177Z,1007.77
2022-10-23T06:31:49.250Z,1007.78
2022-10-23T06:32:49.195Z,1007.70
2022-10-23T06:33:49.265Z,1007.74
2022-10-23T06:34:49.178Z,1007.72
2022-10-23T06:35:49.151Z,1007.71
2022-10-23T06:36:49.159Z,1007.73
2022-10-23T06:37:49.171Z,1007.74
2022-10-23T06:38:49.196Z,1007.72
2022-10-23T06:39:49.128Z,1007.79
2022-10-23T06:40:49.145Z,1007.81
2022-10-23T06:41:49.122Z,1007.78
2022-10-23T06:42:49.174Z,1007.75
2022-10-23T06:43:49.127Z,1007.77
2022-10-23T06:44:49.104Z,1007.79
2022-10-23T06:45:49.064Z,1007.76
2022-10-23T06:46:49.055Z,1007.69
2022-10-23T06:47:49.019Z,1007.74
2022-10-23T06:48:49.082Z,1007.71
2022-10-23T06:49:49.030Z,1007.73
2022-10-23T06:50:49.025Z,1007.69
2022-10-23T06:51:48.989Z,1007.68
2022-10-23T06:52:48.977Z,1007.68
2022-10-23T06:53:49.016Z,1007.64
2022-10-23T06:54:48.984Z,1007.64
2022-10-23T06:55:51.441Z,1007.63
2022-10-23T06:56:50.903Z,1007.63
2022-10-23T06:57:48.993Z,1007.61
2022-10-23T06:58:48.948Z,1007.58
2022-10-23T06:59:48.894Z,1007.54
2022-10-23T07:00:49.020Z,1007.56
2022-10-23T07:01:49.048Z,1007.54
2022-10-23T07:02:48.951Z,1007.52
2022-10-23T07:03:48.858Z,1007.54
2022-10-23T07:04:48.893Z,1007.51
2022-10-23T07:05:48.836Z,1007.48
2022-10-23T07:06:48.834Z,1007.50
2022-10-23T07:07:48.805Z,1007.50
2022-10-23T07:08:48.843Z,1007.52
2022-10-23T07:09:48.783Z,1007.54
2022-10-23T07:10:48.776Z,1007.51
2022-10-23T07:11:48.758Z,1007.55
2022-10-23T07:12:48.785Z,1007.52
2022-10-23T07:13:48.737Z,1007.56
2022-10-23T07:14:48.777Z,1007.52
2022-10-23T07:15:48.724Z,1007.51
2022-10-23T07:16:48.698Z,1007.53
2022-10-23T07:17:50.173Z,1007.52
2022-10-23T07:18:48.702Z,1007.50
2022-10-23T07:19:48.680Z,1007.51
2022-10-23T07:20:48.701Z,1007.52
2022-10-23T07:21:48.654Z,1007.54
2022-10-23T07:22:48.648Z,1007.51
2022-10-23T07:23:48.629Z,1007.50
2022-10-23T07:24:48.636Z,1007.55
2022-10-23T07:25:48.620Z,1007.55
2022-10-23T07:26:48.633Z,1007.46
2022-10-23T07:27:48.605Z,1007.44
2022-10-23T07:28:48.610Z,1007.45
2022-10-23T07:29:48.561Z,1007.48
2022-10-23T07:30:48.553Z,1007.45
2022-10-23T07:31:48.565Z,1007.44
2022-10-23T07:32:48.570Z,1007.46
2022-10-23T07:33:48.506Z,1007.40
2022-10-23T07:34:48.515Z,1007.37
2022-10-23T07:35:48.483Z,1007.39
2022-10-23T07:36:48.509Z,1007.39
2022-10-23T07:37:48.481Z,1007.39
2022-10-23T07:38:48.492Z,1007.37
2022-10-23T07:39:48.445Z,1007.39
2022-10-23T07:40:48.459Z,1007.32
2022-10-23T07:41:48.469Z,1007.35
2022-10-23T07:42:48.431Z,1007.36
2022-10-23T07:43:48.430Z,1007.35
2022-10-23T07:44:48.420Z,1007.35
2022-10-23T07:45:48.423Z,1007.29
2022-10-23T07:46:48.374Z,1007.33
2022-10-23T07:47:48.413Z,1007.33
2022-10-23T07:48:48.364Z,1007.36
2022-10-23T07:49:48.342Z,1007.31
2022-10-23T07:50:48.631Z,1007.37
2022-10-23T07:51:51.265Z,1007.28
2022-10-23T07:52:48.391Z,1007.30
2022-10-23T07:53:48.353Z,1007.24
2022-10-23T07:54:48.508Z,1007.25
2022-10-23T07:55:48.444Z,1007.29
2022-10-23T07:56:48.416Z,1007.26
2022-10-23T07:57:53.591Z,1007.26
2022-10-23T07:58:48.524Z,1007.21
2022-10-23T07:59:48.392Z,1007.30
2022-10-23T08:00:48.517Z,1007.19
2022-10-23T08:01:50.476Z,1007.22
2022-10-23T08:02:48.190Z,1007.20
2022-10-23T08:03:48.223Z,1007.20
2022-10-23T08:04:48.222Z,1007.19
2022-10-23T08:05:48.256Z,1007.15
2022-10-23T08:06:48.223Z,1007.18
2022-10-23T08:07:48.301Z,1007.10
2022-10-23T08:08:48.321Z,1007.11
2022-10-23T08:09:48.285Z,1007.09
2022-10-23T08:10:48.198Z,1007.14
2022-10-23T08:11:48.096Z,1007.12
2022-10-23T08:12:48.100Z,1007.12
2022-10-23T08:13:48.069Z,1007.12
2022-10-23T08:14:48.074Z,1007.15
2022-10-23T08:15:48.123Z,1007.14
2022-10-23T08:16:48.040Z,1007.14
2022-10-23T08:17:48.014Z,1007.15
2022-10-23T08:18:48.015Z,1007.10
2022-10-23T08:19:47.995Z,1007.12
2022-10-23T08:20:47.988Z,1007.12
2022-10-23T08:21:48.025Z,1007.09
2022-10-23T08:22:47.969Z,1007.15
2022-10-23T08:23:47.959Z,1007.16
2022-10-23T08:24:47.947Z,1007.14
2022-10-23T08:25:47.977Z,1007.14
2022-10-23T08:26:47.926Z,1007.18
2022-10-23T08:27:49.588Z,1007.17
2022-10-23T08:28:47.932Z,1007.15
2022-10-23T08:29:47.894Z,1007.13
2022-10-23T08:30:47.888Z,1007.15
2022-10-23T08:31:47.867Z,1007.16
2022-10-23T08:32:47.849Z,1007.13
2022-10-23T08:34:47.830Z,1007.16
2022-10-23T08:35:47.828Z,1007.20
2022-10-23T08:36:47.862Z,1007.21
2022-10-23T08:37:47.813Z,1007.19
2022-10-23T08:38:47.810Z,1007.18
2022-10-23T08:39:50.131Z,1007.19
2022-10-23T08:40:47.777Z,1007.21
2022-10-23T08:41:47.791Z,1007.17
2022-10-23T08:42:47.889Z,1007.17
2022-10-23T08:43:47.813Z,1007.15
2022-10-23T08:44:47.825Z,1007.19
2022-10-23T08:45:47.833Z,1007.13
2022-10-23T08:46:47.717Z,1007.15
2022-10-23T08:47:47.907Z,1007.24
2022-10-23T08:48:48.639Z,1007.09
2022-10-23T08:49:47.688Z,1007.12
2022-10-23T08:50:47.659Z,1007.04
2022-10-23T08:51:47.692Z,1007.05
2022-10-23T08:52:47.656Z,1007.08
2022-10-23T08:53:48.664Z,1006.92
2022-10-23T08:54:47.617Z,1006.97
2022-10-23T08:55:47.708Z,1006.96
2022-10-23T08:56:47.606Z,1007.04
2022-10-23T08:57:47.606Z,1007.12
2022-10-23T08:58:47.597Z,1006.91
2022-10-23T08:59:47.578Z,1006.91
2022-10-23T09:00:47.629Z,1006.98
2022-10-23T09:01:47.673Z,1006.91
2022-10-23T09:02:47.519Z,1006.87
2022-10-23T09:03:47.539Z,1006.84
2022-10-23T09:04:47.510Z,1006.81
2022-10-23T09:05:47.502Z,1006.78
2022-10-23T09:06:47.512Z,1006.77
2022-10-23T09:07:47.479Z,1006.74
2022-10-23T09:08:47.553Z,1006.70
2022-10-23T09:09:47.464Z,1006.68
2022-10-23T09:10:49.327Z,1006.71
2022-10-23T09:11:47.430Z,1006.62
2022-10-23T09:12:47.419Z,1006.69
2022-10-23T09:13:47.437Z,1006.66
2022-10-23T09:14:47.437Z,1006.65
2022-10-23T09:15:47.393Z,1006.61
2022-10-23T09:16:47.365Z,1006.63
2022-10-23T09:17:48.395Z,1006.62
2022-10-23T09:18:47.446Z,1006.58
2022-10-23T09:19:47.358Z,1006.56
2022-10-23T09:20:47.349Z,1006.51
2022-10-23T09:21:47.315Z,1006.54
2022-10-23T09:22:47.346Z,1006.52
2022-10-23T09:23:47.297Z,1006.47
2022-10-23T09:24:51.558Z,1006.43
2022-10-23T09:25:48.288Z,1006.43
2022-10-23T09:26:47.255Z,1006.40
2022-10-23T09:27:48.700Z,1006.39
2022-10-23T09:28:47.303Z,1006.41
2022-10-23T09:29:47.234Z,1006.35
2022-10-23T09:30:47.214Z,1006.37
2022-10-23T09:31:47.218Z,1006.36
2022-10-23T09:32:47.250Z,1006.33
2022-10-23T09:33:48.208Z,1006.32
2022-10-23T09:34:47.310Z,1006.30
2022-10-23T09:35:47.204Z,1006.30
2022-10-23T09:36:47.177Z,1006.31
2022-10-23T09:37:47.151Z,1006.31
2022-10-23T09:38:48.075Z,1006.31
2022-10-23T09:39:47.179Z,1006.33
2022-10-23T09:40:47.113Z,1006.34
2022-10-23T09:41:47.108Z,1006.31
2022-10-23T09:42:47.107Z,1006.31
2022-10-23T09:43:47.073Z,1006.34
2022-10-23T09:44:47.079Z,1006.32
2022-10-23T09:45:47.057Z,1006.30
2022-10-23T09:46:47.130Z,1006.25
2022-10-23T09:47:47.064Z,1006.23
2022-10-23T09:48:47.024Z,1006.26
2022-10-23T09:49:47.024Z,1006.20
2022-10-23T09:50:47.007Z,1006.24
2022-10-23T09:51:47.015Z,1006.23
2022-10-23T09:52:47.170Z,1006.26
2022-10-23T09:53:47.335Z,1006.21
2022-10-23T09:54:46.959Z,1006.22
2022-10-23T09:55:48.026Z,1006.21
2022-10-23T09:57:47.326Z,1006.27
2022-10-23T09:58:47.083Z,1006.29
2022-10-23T09:59:46.958Z,1006.24
2022-10-23T10:00:46.953Z,1006.16
2022-10-23T10:01:47.125Z,1006.18
2022-10-23T10:02:47.015Z,1006.18
2022-10-23T10:03:46.939Z,1006.17
2022-10-23T10:04:46.927Z,1006.09
2022-10-23T10:05:46.911Z,1006.10
2022-10-23T10:06:47.765Z,1006.01
2022-10-23T10:07:46.807Z,1006.00
2022-10-23T10:08:46.784Z,1006.00
2022-10-23T10:09:46.804Z,1005.98
2022-10-23T10:10:46.781Z,1005.98
2022-10-23T10:11:46.871Z,1005.95
2022-10-23T10:12:46.754Z,1005.92
2022-10-23T10:13:46.750Z,1005.94
2022-10-23T10:14:46.734Z,1005.94
2022-10-23T10:15:46.749Z,1005.90
2022-10-23T10:16:46.724Z,1005.91
2022-10-23T10:17:46.743Z,1005.85
2022-10-23T10:18:46.682Z,1005.86
2022-10-23T10:19:46.709Z,1005.83
2022-10-23T10:20:46.673Z,1005.86
2022-10-23T10:21:46.660Z,1005.84
2022-10-23T10:22:46.680Z,1005.85
2022-10-23T10:23:46.638Z,1005.89
2022-10-23T10:24:46.667Z,1005.88
2022-10-23T10:25:51.360Z,1005.88
2022-10-23T10:26:47.616Z,1005.85
2022-10-23T10:27:46.787Z,1005.87
2022-10-23T10:28:46.607Z,1005.83
2022-10-23T10:29:47.518Z,1005.87
2022-10-23T10:30:47.528Z,1005.83
2022-10-23T10:31:50.566Z,1005.85
2022-10-23T10:32:47.520Z,1005.78
2022-10-23T10:33:46.724Z,1005.81
2022-10-23T10:34:46.510Z,1005.77
2022-10-23T10:35:46.511Z,1005.79
2022-10-23T10:36:46.653Z,1005.80
2022-10-23T10:37:49.355Z,1005.79
2022-10-23T10:38:47.431Z,1005.74
2022-10-23T10:39:46.480Z,1005.71
2022-10-23T10:40:46.449Z,1005.72
2022-10-23T10:41:46.836Z,1005.65
2022-10-23T10:42:46.442Z,1005.67
2022-10-23T10:43:46.407Z,1005.63
2022-10-23T10:44:46.437Z,1005.65
2022-10-23T10:45:46.404Z,1005.53
2022-10-23T10:46:46.402Z,1005.55
2022-10-23T10:47:47.815Z,1005.50
2022-10-23T10:48:46.364Z,1005.40
2022-10-23T10:49:46.364Z,1005.37
2022-10-23T10:50:46.335Z,1005.32
2022-10-23T10:51:46.315Z,1005.31
2022-10-23T10:52:48.985Z,1005.22
2022-10-23T10:53:46.300Z,1005.32
2022-10-23T10:54:46.484Z,1005.23
2022-10-23T10:55:47.236Z,1005.27
2022-10-23T10:56:46.260Z,1005.28
2022-10-23T10:57:46.710Z,1005.21
2022-10-23T10:58:46.289Z,1005.12
2022-10-23T10:59:46.232Z,1005.12
2022-10-23T11:00:46.252Z,1005.12
2022-10-23T11:01:46.374Z,1005.04
2022-10-23T11:02:46.430Z,1005.09
2022-10-23T11:03:46.309Z,1005.05
2022-10-23T11:04:46.247Z,1005.06
2022-10-23T11:05:46.227Z,1005.07
2022-10-23T11:06:46.357Z,1005.02
2022-10-23T11:07:46.387Z,1005.08
2022-10-23T11:08:56.551Z,1004.99
2022-10-23T11:09:47.239Z,1005.03
2022-10-23T11:10:46.125Z,1005.01
2022-10-23T11:11:46.103Z,1004.97
2022-10-23T11:12:46.092Z,1004.98
2022-10-23T11:13:46.112Z,1004.89
2022-10-23T11:14:46.087Z,1004.91
2022-10-23T11:15:46.417Z,1004.81
2022-10-23T11:16:46.052Z,1004.84
2022-10-23T11:17:46.395Z,1004.80
2022-10-23T11:18:46.034Z,1004.83
2022-10-23T11:19:46.149Z,1004.80
2022-10-23T11:20:46.034Z,1004.80
2022-10-23T11:21:46.021Z,1004.74
2022-10-23T11:22:46.248Z,1004.75
2022-10-23T11:23:46.353Z,1004.69
2022-10-23T11:24:49.039Z,1004.67
2022-10-23T11:25:46.815Z,1004.64
2022-10-23T11:26:46.073Z,1004.63
2022-10-23T11:27:46.234Z,1004.64
2022-10-23T11:28:45.934Z,1004.63
2022-10-23T11:29:45.928Z,1004.59
2022-10-23T11:30:45.888Z,1004.57
2022-10-23T11:31:45.931Z,1004.55
2022-10-23T11:32:45.911Z,1004.53
2022-10-23T11:33:45.865Z,1004.53
2022-10-23T11:34:45.853Z,1004.66
2022-10-23T11:35:45.828Z,1004.57
2022-10-23T11:36:45.826Z,1004.59
2022-10-23T11:37:46.100Z,1004.55
2022-10-23T11:38:45.821Z,1004.52
2022-10-23T11:39:45.787Z,1004.45
2022-10-23T11:40:45.804Z,1004.50
2022-10-23T11:41:45.763Z,1004.34
2022-10-23T11:42:52.781Z,1004.38
2022-10-23T11:43:46.415Z,1004.36
2022-10-23T11:44:46.425Z,1004.35
2022-10-23T11:45:45.736Z,1004.36
2022-10-23T11:46:45.740Z,1004.39
2022-10-23T11:47:45.700Z,1004.49
2022-10-23T11:48:45.699Z,1004.53
2022-10-23T11:49:45.678Z,1004.52
2022-10-23T11:50:45.917Z,1004.54
2022-10-23T11:51:45.677Z,1004.50
2022-10-23T11:52:50.599Z,1004.50
2022-10-23T11:53:46.639Z,1004.55
2022-10-23T11:54:45.649Z,1004.53
2022-10-23T11:55:45.653Z,1004.54
2022-10-23T11:56:45.609Z,1004.50
2022-10-23T11:57:45.594Z,1004.35
2022-10-23T11:58:45.653Z,1004.27
2022-10-23T11:59:45.688Z,1004.22
2022-10-23T12:00:45.700Z,1004.15
2022-10-23T12:01:46.462Z,1004.29
2022-10-23T12:02:46.027Z,1004.29
2022-10-23T12:03:45.524Z,1004.31
2022-10-23T12:04:45.531Z,1004.34
2022-10-23T12:05:48.595Z,1004.25
2022-10-23T12:07:08.159Z,1004.21
2022-10-23T12:07:45.705Z,1004.22